sensor_id;sensor_type;location;lat;lon;timestamp;P1;durP1;ratioP1;P2;durP2;ratioP2
2462;SDS011;1243;54.298;10.172;2022-07-19T00:00:04;10.03;;;6.27;;
2462;SDS011;1243;54.298;10.172;2022-07-19T00:02:33;6.20;;;5.57;;
2462;SDS011;1243;54.298;10.172;2022-07-19T00:04:59;5.87;;;5.27;;
2462;SDS011;1243;54.298;10.172;2022-07-19T00:07:25;9.40;;;5.97;;
2462;SDS011;1243;54.298;10.172;2022-07-19T00:09:51;8.13;;;6.03;;
2462;SDS011;1243;54.298;10.172;2022-07-19T00:12:16;5.97;;;5.10;;
2462;SDS011;1243;54.298;10.172;2022-07-19T00:14:42;6.60;;;5.00;;
2462;SDS011;1243;54.298;10.172;2022-07-19T00:17:08;10.73;;;5.57;;
2462;SDS011;1243;54.298;10.172;2022-07-19T00:19:33;10.13;;;5.60;;
2462;SDS011;1243;54.298;10.172;2022-07-19T00:21:59;9.07;;;6.20;;
2462;SDS011;1243;54.298;10.172;2022-07-19T00:24:25;8.23;;;5.50;;
2462;SDS011;1243;54.298;10.172;2022-07-19T00:26:51;7.03;;;4.93;;
2462;SDS011;1243;54.298;10.172;2022-07-19T00:29:16;5.47;;;4.97;;
2462;SDS011;1243;54.298;10.172;2022-07-19T00:31:42;9.70;;;5.97;;
2462;SDS011;1243;54.298;10.172;2022-07-19T00:34:08;6.23;;;5.13;;
2462;SDS011;1243;54.298;10.172;2022-07-19T00:36:34;6.70;;;4.77;;
2462;SDS011;1243;54.298;10.172;2022-07-19T00:38:59;6.27;;;5.60;;
2462;SDS011;1243;54.298;10.172;2022-07-19T00:41:25;5.63;;;5.03;;
2462;SDS011;1243;54.298;10.172;2022-07-19T00:43:51;9.60;;;5.40;;
2462;SDS011;1243;54.298;10.172;2022-07-19T00:46:17;5.80;;;4.70;;
2462;SDS011;1243;54.298;10.172;2022-07-19T00:48:45;6.33;;;5.33;;
2462;SDS011;1243;54.298;10.172;2022-07-19T00:51:13;10.10;;;6.67;;
2462;SDS011;1243;54.298;10.172;2022-07-19T00:53:40;5.30;;;4.80;;
2462;SDS011;1243;54.298;10.172;2022-07-19T00:56:08;6.90;;;5.37;;
2462;SDS011;1243;54.298;10.172;2022-07-19T00:58:35;6.33;;;4.90;;
2462;SDS011;1243;54.298;10.172;2022-07-19T01:01:02;6.80;;;5.87;;
2462;SDS011;1243;54.298;10.172;2022-07-19T01:03:29;6.53;;;5.77;;
2462;SDS011;1243;54.298;10.172;2022-07-19T01:05:55;6.20;;;4.93;;
2462;SDS011;1243;54.298;10.172;2022-07-19T01:08:21;8.07;;;6.37;;
2462;SDS011;1243;54.298;10.172;2022-07-19T01:10:46;6.87;;;5.47;;
2462;SDS011;1243;54.298;10.172;2022-07-19T01:13:12;7.17;;;6.00;;
2462;SDS011;1243;54.298;10.172;2022-07-19T01:15:39;6.43;;;5.50;;
2462;SDS011;1243;54.298;10.172;2022-07-19T01:18:06;7.60;;;6.00;;
2462;SDS011;1243;54.298;10.172;2022-07-19T01:20:32;7.90;;;5.67;;
2462;SDS011;1243;54.298;10.172;2022-07-19T01:22:58;6.53;;;5.13;;
2462;SDS011;1243;54.298;10.172;2022-07-19T01:25:25;7.13;;;4.40;;
2462;SDS011;1243;54.298;10.172;2022-07-19T01:27:54;7.37;;;5.80;;
2462;SDS011;1243;54.298;10.172;2022-07-19T01:30:21;7.60;;;5.73;;
2462;SDS011;1243;54.298;10.172;2022-07-19T01:32:50;8.90;;;5.10;;
2462;SDS011;1243;54.298;10.172;2022-07-19T01:35:16;6.47;;;5.43;;
2462;SDS011;1243;54.298;10.172;2022-07-19T01:37:43;6.20;;;4.57;;
2462;SDS011;1243;54.298;10.172;2022-07-19T01:40:09;7.10;;;5.47;;
2462;SDS011;1243;54.298;10.172;2022-07-19T01:42:37;8.43;;;6.53;;
2462;SDS011;1243;54.298;10.172;2022-07-19T01:45:04;7.73;;;6.10;;
2462;SDS011;1243;54.298;10.172;2022-07-19T01:47:30;6.67;;;5.53;;
2462;SDS011;1243;54.298;10.172;2022-07-19T01:49:56;6.03;;;4.80;;
2462;SDS011;1243;54.298;10.172;2022-07-19T01:52:22;7.50;;;5.40;;
2462;SDS011;1243;54.298;10.172;2022-07-19T01:54:48;8.27;;;5.80;;
2462;SDS011;1243;54.298;10.172;2022-07-19T01:57:13;10.23;;;5.10;;
2462;SDS011;1243;54.298;10.172;2022-07-19T01:59:39;5.87;;;5.17;;
2462;SDS011;1243;54.298;10.172;2022-07-19T02:02:05;6.63;;;5.00;;
2462;SDS011;1243;54.298;10.172;2022-07-19T02:04:31;8.60;;;5.40;;
2462;SDS011;1243;54.298;10.172;2022-07-19T02:06:57;8.40;;;5.60;;
2462;SDS011;1243;54.298;10.172;2022-07-19T02:09:23;9.60;;;5.97;;
2462;SDS011;1243;54.298;10.172;2022-07-19T02:11:49;7.77;;;5.23;;
2462;SDS011;1243;54.298;10.172;2022-07-19T02:14:15;5.77;;;5.17;;
2462;SDS011;1243;54.298;10.172;2022-07-19T02:16:41;7.23;;;5.47;;
2462;SDS011;1243;54.298;10.172;2022-07-19T02:19:08;6.10;;;5.50;;
2462;SDS011;1243;54.298;10.172;2022-07-19T02:21:34;4.57;;;4.13;;
2462;SDS011;1243;54.298;10.172;2022-07-19T02:24:00;5.47;;;4.77;;
2462;SDS011;1243;54.298;10.172;2022-07-19T02:26:26;7.67;;;5.43;;
2462;SDS011;1243;54.298;10.172;2022-07-19T02:28:52;6.00;;;5.40;;
2462;SDS011;1243;54.298;10.172;2022-07-19T02:31:18;9.23;;;5.73;;
2462;SDS011;1243;54.298;10.172;2022-07-19T02:33:44;6.53;;;5.23;;
2462;SDS011;1243;54.298;10.172;2022-07-19T02:36:10;13.30;;;9.90;;
2462;SDS011;1243;54.298;10.172;2022-07-19T02:38:36;10.03;;;7.83;;
2462;SDS011;1243;54.298;10.172;2022-07-19T02:41:02;10.50;;;6.90;;
2462;SDS011;1243;54.298;10.172;2022-07-19T02:43:28;9.40;;;6.10;;
2462;SDS011;1243;54.298;10.172;2022-07-19T02:45:53;5.60;;;5.00;;
2462;SDS011;1243;54.298;10.172;2022-07-19T02:48:19;6.90;;;5.13;;
2462;SDS011;1243;54.298;10.172;2022-07-19T02:50:45;7.23;;;5.27;;
2462;SDS011;1243;54.298;10.172;2022-07-19T02:53:11;10.10;;;5.60;;
2462;SDS011;1243;54.298;10.172;2022-07-19T02:55:37;6.50;;;5.20;;
2462;SDS011;1243;54.298;10.172;2022-07-19T02:58:03;5.13;;;4.10;;
2462;SDS011;1243;54.298;10.172;2022-07-19T03:00:29;6.80;;;5.17;;
2462;SDS011;1243;54.298;10.172;2022-07-19T03:02:56;5.77;;;5.03;;
2462;SDS011;1243;54.298;10.172;2022-07-19T03:05:43;9.53;;;5.40;;
2462;SDS011;1243;54.298;10.172;2022-07-19T03:08:09;6.90;;;5.00;;
2462;SDS011;1243;54.298;10.172;2022-07-19T03:10:35;9.77;;;5.40;;
2462;SDS011;1243;54.298;10.172;2022-07-19T03:13:01;7.00;;;5.53;;
2462;SDS011;1243;54.298;10.172;2022-07-19T03:15:27;5.97;;;4.73;;
2462;SDS011;1243;54.298;10.172;2022-07-19T03:17:52;8.03;;;6.63;;
2462;SDS011;1243;54.298;10.172;2022-07-19T03:20:18;8.80;;;5.43;;
2462;SDS011;1243;54.298;10.172;2022-07-19T03:22:44;7.90;;;6.10;;
2462;SDS011;1243;54.298;10.172;2022-07-19T03:25:09;7.03;;;5.83;;
2462;SDS011;1243;54.298;10.172;2022-07-19T03:27:35;6.63;;;5.47;;
2462;SDS011;1243;54.298;10.172;2022-07-19T03:30:01;6.63;;;5.97;;
2462;SDS011;1243;54.298;10.172;2022-07-19T03:32:27;6.83;;;6.17;;
2462;SDS011;1243;54.298;10.172;2022-07-19T03:34:53;7.27;;;5.33;;
2462;SDS011;1243;54.298;10.172;2022-07-19T03:37:18;4.77;;;4.37;;
2462;SDS011;1243;54.298;10.172;2022-07-19T03:39:44;7.47;;;5.40;;
2462;SDS011;1243;54.298;10.172;2022-07-19T03:42:10;7.70;;;5.70;;
2462;SDS011;1243;54.298;10.172;2022-07-19T03:44:35;8.70;;;6.00;;
2462;SDS011;1243;54.298;10.172;2022-07-19T03:47:01;5.17;;;4.70;;
2462;SDS011;1243;54.298;10.172;2022-07-19T03:49:27;5.77;;;4.60;;
2462;SDS011;1243;54.298;10.172;2022-07-19T03:51:52;8.40;;;5.47;;
2462;SDS011;1243;54.298;10.172;2022-07-19T03:54:18;7.10;;;5.27;;
2462;SDS011;1243;54.298;10.172;2022-07-19T03:56:44;6.30;;;4.93;;
2462;SDS011;1243;54.298;10.172;2022-07-19T03:59:09;6.23;;;5.03;;
2462;SDS011;1243;54.298;10.172;2022-07-19T04:01:35;7.13;;;5.30;;
2462;SDS011;1243;54.298;10.172;2022-07-19T04:04:03;7.17;;;5.07;;
2462;SDS011;1243;54.298;10.172;2022-07-19T04:06:29;6.50;;;4.53;;
2462;SDS011;1243;54.298;10.172;2022-07-19T04:08:55;7.23;;;5.50;;
2462;SDS011;1243;54.298;10.172;2022-07-19T04:11:21;10.17;;;4.67;;
2462;SDS011;1243;54.298;10.172;2022-07-19T04:13:47;5.80;;;5.27;;
2462;SDS011;1243;54.298;10.172;2022-07-19T04:16:12;5.73;;;5.23;;
2462;SDS011;1243;54.298;10.172;2022-07-19T04:18:38;7.53;;;5.50;;
2462;SDS011;1243;54.298;10.172;2022-07-19T04:21:04;8.20;;;5.93;;
2462;SDS011;1243;54.298;10.172;2022-07-19T04:23:30;5.63;;;5.13;;
2462;SDS011;1243;54.298;10.172;2022-07-19T04:25:56;7.57;;;5.50;;
2462;SDS011;1243;54.298;10.172;2022-07-19T04:28:22;5.67;;;4.97;;
2462;SDS011;1243;54.298;10.172;2022-07-19T04:30:48;5.57;;;5.07;;
2462;SDS011;1243;54.298;10.172;2022-07-19T04:33:15;7.67;;;4.60;;
2462;SDS011;1243;54.298;10.172;2022-07-19T04:35:41;4.63;;;4.23;;
2462;SDS011;1243;54.298;10.172;2022-07-19T04:38:07;8.40;;;5.40;;
2462;SDS011;1243;54.298;10.172;2022-07-19T04:40:33;6.80;;;5.60;;
2462;SDS011;1243;54.298;10.172;2022-07-19T04:42:59;5.67;;;4.30;;
2462;SDS011;1243;54.298;10.172;2022-07-19T04:45:25;9.97;;;6.47;;
2462;SDS011;1243;54.298;10.172;2022-07-19T04:47:50;8.47;;;7.43;;
2462;SDS011;1243;54.298;10.172;2022-07-19T04:50:16;10.77;;;8.67;;
2462;SDS011;1243;54.298;10.172;2022-07-19T04:52:42;10.63;;;6.80;;
2462;SDS011;1243;54.298;10.172;2022-07-19T04:55:07;8.70;;;6.40;;
2462;SDS011;1243;54.298;10.172;2022-07-19T04:57:33;7.63;;;6.10;;
2462;SDS011;1243;54.298;10.172;2022-07-19T04:59:59;7.70;;;6.17;;
2462;SDS011;1243;54.298;10.172;2022-07-19T05:02:25;7.93;;;7.13;;
2462;SDS011;1243;54.298;10.172;2022-07-19T05:04:50;10.73;;;6.40;;
2462;SDS011;1243;54.298;10.172;2022-07-19T05:07:16;7.00;;;6.30;;
2462;SDS011;1243;54.298;10.172;2022-07-19T05:09:42;10.60;;;7.43;;
2462;SDS011;1243;54.298;10.172;2022-07-19T05:12:09;8.63;;;6.83;;
2462;SDS011;1243;54.298;10.172;2022-07-19T05:14:36;7.60;;;6.00;;
2462;SDS011;1243;54.298;10.172;2022-07-19T05:17:02;10.03;;;7.40;;
2462;SDS011;1243;54.298;10.172;2022-07-19T05:19:27;8.80;;;6.43;;
2462;SDS011;1243;54.298;10.172;2022-07-19T05:21:53;12.87;;;7.17;;
2462;SDS011;1243;54.298;10.172;2022-07-19T05:24:19;13.83;;;8.73;;
2462;SDS011;1243;54.298;10.172;2022-07-19T05:26:44;12.27;;;8.30;;
2462;SDS011;1243;54.298;10.172;2022-07-19T05:29:10;11.47;;;9.10;;
2462;SDS011;1243;54.298;10.172;2022-07-19T05:31:36;11.07;;;6.60;;
2462;SDS011;1243;54.298;10.172;2022-07-19T05:34:02;14.00;;;7.47;;
2462;SDS011;1243;54.298;10.172;2022-07-19T05:36:28;9.80;;;7.47;;
2462;SDS011;1243;54.298;10.172;2022-07-19T05:38:54;15.60;;;7.70;;
2462;SDS011;1243;54.298;10.172;2022-07-19T05:41:20;10.63;;;6.20;;
2462;SDS011;1243;54.298;10.172;2022-07-19T05:43:49;8.97;;;7.17;;
2462;SDS011;1243;54.298;10.172;2022-07-19T05:46:16;7.17;;;6.47;;
2462;SDS011;1243;54.298;10.172;2022-07-19T05:48:42;7.73;;;5.57;;
2462;SDS011;1243;54.298;10.172;2022-07-19T05:51:08;12.30;;;5.50;;
2462;SDS011;1243;54.298;10.172;2022-07-19T05:53:35;9.37;;;6.10;;
2462;SDS011;1243;54.298;10.172;2022-07-19T05:56:01;10.50;;;6.30;;
2462;SDS011;1243;54.298;10.172;2022-07-19T05:58:28;10.37;;;6.40;;
2462;SDS011;1243;54.298;10.172;2022-07-19T06:00:53;10.07;;;7.00;;
2462;SDS011;1243;54.298;10.172;2022-07-19T06:03:38;7.53;;;5.83;;
2462;SDS011;1243;54.298;10.172;2022-07-19T06:06:03;7.93;;;5.80;;
2462;SDS011;1243;54.298;10.172;2022-07-19T06:08:29;7.33;;;5.80;;
2462;SDS011;1243;54.298;10.172;2022-07-19T06:10:55;10.07;;;6.63;;
2462;SDS011;1243;54.298;10.172;2022-07-19T06:13:21;6.87;;;5.10;;
2462;SDS011;1243;54.298;10.172;2022-07-19T06:15:47;9.43;;;6.20;;
2462;SDS011;1243;54.298;10.172;2022-07-19T06:18:13;10.03;;;6.47;;
2462;SDS011;1243;54.298;10.172;2022-07-19T06:20:38;8.03;;;5.63;;
2462;SDS011;1243;54.298;10.172;2022-07-19T06:23:04;9.17;;;5.70;;
2462;SDS011;1243;54.298;10.172;2022-07-19T06:25:29;8.00;;;6.10;;
2462;SDS011;1243;54.298;10.172;2022-07-19T06:27:55;9.33;;;5.77;;
2462;SDS011;1243;54.298;10.172;2022-07-19T06:30:21;9.47;;;5.70;;
2462;SDS011;1243;54.298;10.172;2022-07-19T06:32:46;8.90;;;5.43;;
2462;SDS011;1243;54.298;10.172;2022-07-19T06:35:12;7.50;;;5.50;;
2462;SDS011;1243;54.298;10.172;2022-07-19T06:37:38;8.30;;;5.53;;
2462;SDS011;1243;54.298;10.172;2022-07-19T06:40:03;6.50;;;4.93;;
2462;SDS011;1243;54.298;10.172;2022-07-19T06:42:30;6.50;;;5.80;;
2462;SDS011;1243;54.298;10.172;2022-07-19T06:44:56;7.60;;;5.07;;
2462;SDS011;1243;54.298;10.172;2022-07-19T06:47:24;12.13;;;6.10;;
2462;SDS011;1243;54.298;10.172;2022-07-19T06:49:49;6.90;;;5.37;;
2462;SDS011;1243;54.298;10.172;2022-07-19T06:52:15;6.20;;;5.47;;
2462;SDS011;1243;54.298;10.172;2022-07-19T06:54:41;6.73;;;5.20;;
2462;SDS011;1243;54.298;10.172;2022-07-19T06:57:06;5.57;;;5.07;;
2462;SDS011;1243;54.298;10.172;2022-07-19T06:59:33;7.00;;;4.27;;
2462;SDS011;1243;54.298;10.172;2022-07-19T07:01:59;10.53;;;5.47;;
2462;SDS011;1243;54.298;10.172;2022-07-19T07:04:24;9.30;;;5.83;;
2462;SDS011;1243;54.298;10.172;2022-07-19T07:06:50;7.90;;;4.87;;
2462;SDS011;1243;54.298;10.172;2022-07-19T07:09:16;4.60;;;4.10;;
2462;SDS011;1243;54.298;10.172;2022-07-19T07:11:41;8.47;;;4.93;;
2462;SDS011;1243;54.298;10.172;2022-07-19T07:14:07;10.50;;;4.87;;
2462;SDS011;1243;54.298;10.172;2022-07-19T07:16:33;5.37;;;4.43;;
2462;SDS011;1243;54.298;10.172;2022-07-19T07:18:59;8.40;;;5.17;;
2462;SDS011;1243;54.298;10.172;2022-07-19T07:21:24;6.73;;;5.37;;
2462;SDS011;1243;54.298;10.172;2022-07-19T07:23:50;7.70;;;4.60;;
2462;SDS011;1243;54.298;10.172;2022-07-19T07:26:16;5.87;;;4.47;;
2462;SDS011;1243;54.298;10.172;2022-07-19T07:28:42;5.60;;;4.67;;
2462;SDS011;1243;54.298;10.172;2022-07-19T07:31:07;7.70;;;4.37;;
2462;SDS011;1243;54.298;10.172;2022-07-19T07:33:33;6.90;;;4.80;;
2462;SDS011;1243;54.298;10.172;2022-07-19T07:35:59;4.97;;;4.40;;
2462;SDS011;1243;54.298;10.172;2022-07-19T07:38:24;4.90;;;3.60;;
2462;SDS011;1243;54.298;10.172;2022-07-19T07:40:50;9.57;;;4.83;;
2462;SDS011;1243;54.298;10.172;2022-07-19T07:43:15;7.63;;;5.20;;
2462;SDS011;1243;54.298;10.172;2022-07-19T07:45:41;7.53;;;5.03;;
2462;SDS011;1243;54.298;10.172;2022-07-19T07:48:07;7.83;;;4.30;;
2462;SDS011;1243;54.298;10.172;2022-07-19T07:50:33;6.37;;;4.67;;
2462;SDS011;1243;54.298;10.172;2022-07-19T07:52:59;9.00;;;5.00;;
2462;SDS011;1243;54.298;10.172;2022-07-19T07:55:24;6.00;;;5.27;;
2462;SDS011;1243;54.298;10.172;2022-07-19T07:57:50;6.27;;;5.17;;
2462;SDS011;1243;54.298;10.172;2022-07-19T08:00:16;6.80;;;5.20;;
2462;SDS011;1243;54.298;10.172;2022-07-19T08:02:42;5.93;;;5.13;;
2462;SDS011;1243;54.298;10.172;2022-07-19T08:05:10;7.70;;;4.93;;
2462;SDS011;1243;54.298;10.172;2022-07-19T08:07:37;7.47;;;6.37;;
2462;SDS011;1243;54.298;10.172;2022-07-19T08:10:04;6.77;;;5.17;;
2462;SDS011;1243;54.298;10.172;2022-07-19T08:12:32;6.63;;;5.27;;
2462;SDS011;1243;54.298;10.172;2022-07-19T08:14:58;5.90;;;5.30;;
2462;SDS011;1243;54.298;10.172;2022-07-19T08:17:24;7.87;;;4.43;;
2462;SDS011;1243;54.298;10.172;2022-07-19T08:19:50;6.40;;;4.20;;
2462;SDS011;1243;54.298;10.172;2022-07-19T08:22:16;7.33;;;4.67;;
2462;SDS011;1243;54.298;10.172;2022-07-19T08:24:43;4.37;;;3.97;;
2462;SDS011;1243;54.298;10.172;2022-07-19T08:27:10;6.03;;;5.33;;
2462;SDS011;1243;54.298;10.172;2022-07-19T08:29:35;7.00;;;4.47;;
2462;SDS011;1243;54.298;10.172;2022-07-19T08:32:01;6.30;;;4.90;;
2462;SDS011;1243;54.298;10.172;2022-07-19T08:34:27;5.23;;;4.70;;
2462;SDS011;1243;54.298;10.172;2022-07-19T08:36:53;5.60;;;4.43;;
2462;SDS011;1243;54.298;10.172;2022-07-19T08:39:19;6.87;;;4.40;;
2462;SDS011;1243;54.298;10.172;2022-07-19T08:41:45;5.93;;;4.90;;
2462;SDS011;1243;54.298;10.172;2022-07-19T08:44:11;5.80;;;4.93;;
2462;SDS011;1243;54.298;10.172;2022-07-19T08:46:39;5.60;;;4.93;;
2462;SDS011;1243;54.298;10.172;2022-07-19T08:49:06;4.83;;;4.33;;
2462;SDS011;1243;54.298;10.172;2022-07-19T08:51:33;6.63;;;4.87;;
2462;SDS011;1243;54.298;10.172;2022-07-19T08:53:59;6.20;;;4.27;;
2462;SDS011;1243;54.298;10.172;2022-07-19T08:56:25;4.40;;;4.00;;
2462;SDS011;1243;54.298;10.172;2022-07-19T08:59:09;6.43;;;4.13;;
2462;SDS011;1243;54.298;10.172;2022-07-19T09:01:35;5.30;;;3.97;;
2462;SDS011;1243;54.298;10.172;2022-07-19T09:04:14;5.97;;;5.13;;
2462;SDS011;1243;54.298;10.172;2022-07-19T09:06:46;6.77;;;3.97;;
2462;SDS011;1243;54.298;10.172;2022-07-19T09:09:17;4.93;;;4.20;;
2462;SDS011;1243;54.298;10.172;2022-07-19T09:12:00;5.00;;;4.07;;
2462;SDS011;1243;54.298;10.172;2022-07-19T09:14:28;7.33;;;4.77;;
2462;SDS011;1243;54.298;10.172;2022-07-19T09:17:29;7.43;;;4.13;;
2462;SDS011;1243;54.298;10.172;2022-07-19T09:19:53;5.13;;;4.13;;
2462;SDS011;1243;54.298;10.172;2022-07-19T09:22:19;5.00;;;4.13;;
2462;SDS011;1243;54.298;10.172;2022-07-19T09:24:46;6.53;;;3.97;;
2462;SDS011;1243;54.298;10.172;2022-07-19T09:27:17;4.30;;;3.90;;
2462;SDS011;1243;54.298;10.172;2022-07-19T09:29:45;10.47;;;4.50;;
2462;SDS011;1243;54.298;10.172;2022-07-19T09:32:16;4.97;;;4.30;;
2462;SDS011;1243;54.298;10.172;2022-07-19T09:34:53;4.27;;;3.47;;
2462;SDS011;1243;54.298;10.172;2022-07-19T09:37:25;5.00;;;4.17;;
2462;SDS011;1243;54.298;10.172;2022-07-19T09:39:54;4.07;;;3.27;;
2462;SDS011;1243;54.298;10.172;2022-07-19T09:42:22;3.87;;;3.53;;
2462;SDS011;1243;54.298;10.172;2022-07-19T09:45:02;5.00;;;4.50;;
2462;SDS011;1243;54.298;10.172;2022-07-19T09:47:31;4.47;;;3.87;;
2462;SDS011;1243;54.298;10.172;2022-07-19T09:49:59;4.50;;;4.03;;
2462;SDS011;1243;54.298;10.172;2022-07-19T09:52:25;5.30;;;3.30;;
2462;SDS011;1243;54.298;10.172;2022-07-19T09:54:51;7.20;;;3.87;;
2462;SDS011;1243;54.298;10.172;2022-07-19T09:57:22;4.50;;;3.67;;
2462;SDS011;1243;54.298;10.172;2022-07-19T09:59:50;3.93;;;3.63;;
2462;SDS011;1243;54.298;10.172;2022-07-19T10:02:21;4.73;;;3.50;;
2462;SDS011;1243;54.298;10.172;2022-07-19T10:04:48;3.70;;;3.40;;
2462;SDS011;1243;54.298;10.172;2022-07-19T10:07:15;4.93;;;4.00;;
2462;SDS011;1243;54.298;10.172;2022-07-19T10:09:42;5.67;;;4.10;;
2462;SDS011;1243;54.298;10.172;2022-07-19T10:12:10;4.63;;;3.80;;
2462;SDS011;1243;54.298;10.172;2022-07-19T10:14:37;3.90;;;3.00;;
2462;SDS011;1243;54.298;10.172;2022-07-19T10:19:59;4.20;;;3.80;;
2462;SDS011;1243;54.298;10.172;2022-07-19T10:22:26;3.67;;;3.37;;
2462;SDS011;1243;54.298;10.172;2022-07-19T10:25:14;4.60;;;4.20;;
2462;SDS011;1243;54.298;10.172;2022-07-19T10:27:40;6.53;;;3.50;;
2462;SDS011;1243;54.298;10.172;2022-07-19T10:32:37;5.90;;;4.53;;
2462;SDS011;1243;54.298;10.172;2022-07-19T10:37:41;4.23;;;3.87;;
2462;SDS011;1243;54.298;10.172;2022-07-19T10:40:09;3.70;;;3.30;;
2462;SDS011;1243;54.298;10.172;2022-07-19T10:42:34;4.63;;;3.77;;
2462;SDS011;1243;54.298;10.172;2022-07-19T10:50:04;4.73;;;3.80;;
2462;SDS011;1243;54.298;10.172;2022-07-19T10:52:35;5.70;;;3.73;;
2462;SDS011;1243;54.298;10.172;2022-07-19T10:55:24;6.10;;;3.83;;
2462;SDS011;1243;54.298;10.172;2022-07-19T10:57:50;3.73;;;3.40;;
2462;SDS011;1243;54.298;10.172;2022-07-19T11:00:32;4.30;;;3.90;;
2462;SDS011;1243;54.298;10.172;2022-07-19T11:08:17;4.50;;;4.10;;
2462;SDS011;1243;54.298;10.172;2022-07-19T11:11:01;5.90;;;3.27;;
2462;SDS011;1243;54.298;10.172;2022-07-19T11:13:31;3.47;;;3.17;;
2462;SDS011;1243;54.298;10.172;2022-07-19T11:15:57;4.27;;;3.83;;
2462;SDS011;1243;54.298;10.172;2022-07-19T11:18:23;4.23;;;3.60;;
2462;SDS011;1243;54.298;10.172;2022-07-19T11:20:49;5.23;;;4.63;;
2462;SDS011;1243;54.298;10.172;2022-07-19T11:23:18;5.30;;;3.70;;
2462;SDS011;1243;54.298;10.172;2022-07-19T11:25:45;4.90;;;4.50;;
2462;SDS011;1243;54.298;10.172;2022-07-19T11:28:24;5.37;;;4.40;;
2462;SDS011;1243;54.298;10.172;2022-07-19T11:30:50;4.53;;;3.97;;
2462;SDS011;1243;54.298;10.172;2022-07-19T11:33:17;3.73;;;3.40;;
2462;SDS011;1243;54.298;10.172;2022-07-19T11:35:56;4.83;;;3.83;;
2462;SDS011;1243;54.298;10.172;2022-07-19T11:38:24;4.70;;;4.30;;
2462;SDS011;1243;54.298;10.172;2022-07-19T11:41:11;3.80;;;3.50;;
2462;SDS011;1243;54.298;10.172;2022-07-19T11:43:43;3.97;;;3.53;;
2462;SDS011;1243;54.298;10.172;2022-07-19T11:46:34;4.67;;;4.20;;
2462;SDS011;1243;54.298;10.172;2022-07-19T11:49:05;8.80;;;3.90;;
2462;SDS011;1243;54.298;10.172;2022-07-19T11:51:33;4.10;;;3.70;;
2462;SDS011;1243;54.298;10.172;2022-07-19T11:53:59;3.83;;;3.53;;
2462;SDS011;1243;54.298;10.172;2022-07-19T11:56:28;4.50;;;4.10;;
2462;SDS011;1243;54.298;10.172;2022-07-19T11:58:56;4.27;;;3.90;;
2462;SDS011;1243;54.298;10.172;2022-07-19T12:01:23;3.60;;;3.40;;
2462;SDS011;1243;54.298;10.172;2022-07-19T12:03:58;4.30;;;3.87;;
2462;SDS011;1243;54.298;10.172;2022-07-19T12:06:41;3.73;;;3.43;;
2462;SDS011;1243;54.298;10.172;2022-07-19T12:09:12;4.60;;;3.90;;
2462;SDS011;1243;54.298;10.172;2022-07-19T12:11:45;4.27;;;3.87;;
2462;SDS011;1243;54.298;10.172;2022-07-19T12:14:19;4.07;;;3.47;;
2462;SDS011;1243;54.298;10.172;2022-07-19T12:17:11;5.20;;;3.90;;
2462;SDS011;1243;54.298;10.172;2022-07-19T12:19:47;4.23;;;3.73;;
2462;SDS011;1243;54.298;10.172;2022-07-19T12:22:33;3.63;;;3.33;;
2462;SDS011;1243;54.298;10.172;2022-07-19T12:25:01;6.77;;;4.17;;
2462;SDS011;1243;54.298;10.172;2022-07-19T12:27:29;4.00;;;2.67;;
2462;SDS011;1243;54.298;10.172;2022-07-19T12:29:55;3.67;;;3.47;;
2462;SDS011;1243;54.298;10.172;2022-07-19T12:32:30;4.17;;;3.67;;
2462;SDS011;1243;54.298;10.172;2022-07-19T12:34:57;6.67;;;4.10;;
2462;SDS011;1243;54.298;10.172;2022-07-19T12:40:05;4.57;;;4.00;;
2462;SDS011;1243;54.298;10.172;2022-07-19T12:42:45;4.20;;;3.43;;
2462;SDS011;1243;54.298;10.172;2022-07-19T12:45:25;3.33;;;3.03;;
2462;SDS011;1243;54.298;10.172;2022-07-19T12:47:53;4.00;;;3.60;;
2462;SDS011;1243;54.298;10.172;2022-07-19T12:50:19;3.90;;;3.60;;
2462;SDS011;1243;54.298;10.172;2022-07-19T12:53:07;10.47;;;6.60;;
2462;SDS011;1243;54.298;10.172;2022-07-19T12:55:35;4.30;;;3.90;;
2462;SDS011;1243;54.298;10.172;2022-07-19T12:58:02;4.57;;;4.10;;
2462;SDS011;1243;54.298;10.172;2022-07-19T13:00:29;5.10;;;3.40;;
2462;SDS011;1243;54.298;10.172;2022-07-19T13:02:56;4.33;;;3.93;;
2462;SDS011;1243;54.298;10.172;2022-07-19T13:05:23;4.13;;;3.73;;
2462;SDS011;1243;54.298;10.172;2022-07-19T13:07:50;3.53;;;3.23;;
2462;SDS011;1243;54.298;10.172;2022-07-19T13:10:16;4.23;;;3.63;;
2462;SDS011;1243;54.298;10.172;2022-07-19T13:12:43;3.67;;;3.40;;
2462;SDS011;1243;54.298;10.172;2022-07-19T13:15:09;5.57;;;3.60;;
2462;SDS011;1243;54.298;10.172;2022-07-19T13:17:36;4.83;;;4.30;;
2462;SDS011;1243;54.298;10.172;2022-07-19T13:20:02;6.10;;;4.20;;
2462;SDS011;1243;54.298;10.172;2022-07-19T13:22:31;5.00;;;4.53;;
2462;SDS011;1243;54.298;10.172;2022-07-19T13:24:56;5.33;;;4.00;;
2462;SDS011;1243;54.298;10.172;2022-07-19T13:27:22;3.77;;;3.47;;
2462;SDS011;1243;54.298;10.172;2022-07-19T13:29:48;3.73;;;2.93;;
2462;SDS011;1243;54.298;10.172;2022-07-19T13:32:13;3.27;;;3.00;;
2462;SDS011;1243;54.298;10.172;2022-07-19T13:34:39;4.43;;;3.80;;
2462;SDS011;1243;54.298;10.172;2022-07-19T13:37:05;4.53;;;3.87;;
2462;SDS011;1243;54.298;10.172;2022-07-19T13:39:31;5.27;;;4.33;;
2462;SDS011;1243;54.298;10.172;2022-07-19T13:41:57;3.57;;;3.10;;
2462;SDS011;1243;54.298;10.172;2022-07-19T13:44:23;4.23;;;3.83;;
2462;SDS011;1243;54.298;10.172;2022-07-19T13:46:49;3.83;;;3.40;;
2462;SDS011;1243;54.298;10.172;2022-07-19T13:49:15;4.37;;;3.50;;
2462;SDS011;1243;54.298;10.172;2022-07-19T13:51:41;4.37;;;4.00;;
2462;SDS011;1243;54.298;10.172;2022-07-19T13:54:07;5.63;;;4.57;;
2462;SDS011;1243;54.298;10.172;2022-07-19T13:56:34;5.43;;;4.17;;
2462;SDS011;1243;54.298;10.172;2022-07-19T13:59:00;3.97;;;3.57;;
2462;SDS011;1243;54.298;10.172;2022-07-19T14:01:26;4.40;;;4.00;;
2462;SDS011;1243;54.298;10.172;2022-07-19T14:03:53;4.77;;;3.20;;
2462;SDS011;1243;54.298;10.172;2022-07-19T14:06:21;4.57;;;4.10;;
2462;SDS011;1243;54.298;10.172;2022-07-19T14:08:46;3.47;;;3.20;;
2462;SDS011;1243;54.298;10.172;2022-07-19T14:11:12;5.87;;;3.23;;
2462;SDS011;1243;54.298;10.172;2022-07-19T14:13:39;4.60;;;3.63;;
2462;SDS011;1243;54.298;10.172;2022-07-19T14:16:05;4.83;;;4.10;;
2462;SDS011;1243;54.298;10.172;2022-07-19T14:18:31;5.37;;;3.67;;
2462;SDS011;1243;54.298;10.172;2022-07-19T14:20:56;4.97;;;3.13;;
2462;SDS011;1243;54.298;10.172;2022-07-19T14:23:22;3.40;;;3.20;;
2462;SDS011;1243;54.298;10.172;2022-07-19T14:25:48;3.97;;;3.53;;
2462;SDS011;1243;54.298;10.172;2022-07-19T14:28:14;3.70;;;3.40;;
2462;SDS011;1243;54.298;10.172;2022-07-19T14:30:42;4.40;;;3.87;;
2462;SDS011;1243;54.298;10.172;2022-07-19T14:33:08;5.77;;;3.63;;
2462;SDS011;1243;54.298;10.172;2022-07-19T14:35:34;5.20;;;3.90;;
2462;SDS011;1243;54.298;10.172;2022-07-19T14:38:00;4.70;;;3.63;;
2462;SDS011;1243;54.298;10.172;2022-07-19T14:40:25;4.13;;;3.60;;
2462;SDS011;1243;54.298;10.172;2022-07-19T14:42:51;5.90;;;3.37;;
2462;SDS011;1243;54.298;10.172;2022-07-19T14:45:17;4.40;;;3.70;;
2462;SDS011;1243;54.298;10.172;2022-07-19T14:47:42;5.03;;;3.67;;
2462;SDS011;1243;54.298;10.172;2022-07-19T14:50:08;5.17;;;3.77;;
2462;SDS011;1243;54.298;10.172;2022-07-19T14:52:35;4.13;;;3.80;;
2462;SDS011;1243;54.298;10.172;2022-07-19T14:55:02;3.50;;;3.20;;
2462;SDS011;1243;54.298;10.172;2022-07-19T14:57:28;5.43;;;4.33;;
2462;SDS011;1243;54.298;10.172;2022-07-19T14:59:54;3.43;;;3.20;;
2462;SDS011;1243;54.298;10.172;2022-07-19T15:02:20;4.57;;;3.30;;
2462;SDS011;1243;54.298;10.172;2022-07-19T15:04:46;4.13;;;3.73;;
2462;SDS011;1243;54.298;10.172;2022-07-19T15:07:12;3.70;;;3.40;;
2462;SDS011;1243;54.298;10.172;2022-07-19T15:09:38;5.10;;;3.80;;
2462;SDS011;1243;54.298;10.172;2022-07-19T15:12:04;6.60;;;3.60;;
2462;SDS011;1243;54.298;10.172;2022-07-19T15:14:31;7.00;;;5.83;;
2462;SDS011;1243;54.298;10.172;2022-07-19T15:16:57;3.50;;;3.20;;
2462;SDS011;1243;54.298;10.172;2022-07-19T15:19:24;4.90;;;3.73;;
2462;SDS011;1243;54.298;10.172;2022-07-19T15:21:50;3.73;;;3.43;;